Startpagina
METAR-TAF:

METAR-TAF

Vliegvelden :

Luchthaven Tartu

Tartu, Estland

breedte: 58-18N, lengte: 026-44E, hoogte: 59 m

Actueel weer

Dit bericht is 18 minuten geleden gemaakt, om 18:20 UTC
Wind 7 kt uit het westen, variërend tussen het westen en het noordwesten
Temperatuur 9°C
Vochtigheid 81%
Druk 1019 hPa
Zicht 10 km of meer

METAR: EETU 191820Z AUTO 28007KT 260V320 9999 NCD 09/06 Q1019

Tijdstip: 21:38 (18:38 UTC)


TAF: ontbreekt

Waarnemingen en weersverwachtingen van meer dan 4000 vliegvelden (METAR en TAF).

De beschikbare stations zijn de gele en rode punten op de kaart.

Ga met uw muis naar het station om de naam te zien.

Klik dan om waarnemingen en weersverwachtingen te zien.

kaart wijzigen: klik op de groene knoppen met een zwart kruis om in te zoomen, op de groene knop met een streepje om uit te zoomen of op de groene pijlen voor aangrenzende kaarten.


METAR-TAF: